Latest Coastal Weather Observations for Samuel Hill

IDQ60701

Issued at 11:52 pm EST Friday 29 July 2016 (issued every 10 minutes, with the page automatically refreshed every 10 minutes)

About coastal observations | Map of coastal stations | Coastal observations for QLD | Marine services | Other Formats
Station Details ID: 033308 Name: SAMUEL HILL AERO Lat: -22.74 Lon: 150.66 Height: 31.0 m
Data from the previous 72 hours. | See also: Recent months at Samuel Hill
Date/Time
EST
Temp
°C
Wind Pressure Rain since
9am
mm
Weather Cloud Vis
km
Sea
Height
m
Swell
Dir  Spd
kts
Gust
kts
hPa Trend Height
m
Period
s
Dir
29/11:30pm 10.3 CALM 0 0 1020.4 - 0.0 - - 10 - - - -
29/11:00pm 10.9 CALM 0 0 1020.5 - 0.0 - - 10 - - - -
29/10:30pm 11.0 CALM 0 0 1020.7 - 0.0 - - 10 - - - -
29/10:00pm 11.7 CALM 0 0 1020.8 - 0.0 - - 10 - - - -
29/09:30pm 12.2 W 3 4 1020.6 - 0.0 - - 10 - - - -
29/09:00pm 12.1 CALM 0 0 1020.5 - 0.0 - - 10 - - - -
29/08:30pm 12.7 CALM 0 0 1020.5 - 0.0 - - 10 - - - -
29/08:00pm 13.0 CALM 0 0 1020.5 - 0.0 - - 10 - - - -
29/07:30pm 13.8 CALM 0 0 1020.2 - 0.0 - - 10 - - - -
29/07:00pm 14.6 S 1 3 1020.0 - 0.0 - - 10 - - - -
29/06:30pm 16.6 S 4 5 1019.7 - 0.0 - - 10 - - - -
29/06:00pm 18.1 S 4 6 1019.6 - 0.0 - - 10 - - - -
29/05:30pm 18.9 SE 5 8 1019.5 - 0.0 - - 10 - - - -
29/05:00pm 20.0 SE 8 11 1019.2 - 0.0 - - 10 - - - -
29/04:30pm 20.8 SE 7 11 1019.0 - 0.0 - - 10 - - - -
29/04:00pm 21.4 SSE 8 12 1018.9 - 0.0 - - 10 - - - -
29/03:30pm 21.9 ESE 8 11 1019.0 - 0.0 - Partly cloudy 10 - - - -
29/03:00pm 22.1 ESE 10 14 1018.9 - 0.0 - Mostly clear 10 - - - -
29/02:30pm 22.5 SE 7 12 1018.9 - 0.0 - Partly cloudy 10 - - - -
29/02:00pm 22.7 ESE 9 15 1019.1 - 0.0 - Partly cloudy 10 - - - -
29/01:30pm 22.8 SE 9 14 1019.2 - 0.0 - Partly cloudy 10 - - - -
29/01:00pm 21.9 SE 10 15 1019.5 - 0.0 - - 10 - - - -
29/12:30pm 21.9 SE 11 16 1020.0 - 0.0 - - 10 - - - -
29/12:00pm 22.2 SE 9 15 1020.5 - 0.0 - - 10 - - - -
29/11:30am 21.2 SSE 11 18 1021.1 - 0.0 - - 10 - - - -
29/11:00am 21.1 SE 12 17 1021.7 - 0.0 - - 10 - - - -
29/10:30am 20.3 SSE 10 14 1021.9 - 0.0 - Partly cloudy 10 - - - -
29/10:00am 19.3 SSE 10 14 1022.2 - 0.0 - Partly cloudy 10 - - - -
29/09:30am 19.1 S 9 13 1022.3 - 0.0 - Partly cloudy 10 - - - -
29/09:00am 18.4 SSE 9 14 1022.4 - 0.0 - Mostly clear 10 - - - -
29/08:30am 16.5 SSE 7 11 1022.3 - 0.0 - - 10 - - - -
29/08:00am 14.6 SSE 5 10 1022.2 - 0.0 - - 10 - - - -
29/07:30am 12.0 CALM 0 0 1021.9 - 0.0 - - 10 - - - -
29/07:00am 9.9 S 3 6 1021.7 - 0.0 - - 10 - - - -
29/06:30am 10.5 S 5 7 1021.2 - 0.0 - Partly cloudy 10 - - - -
29/06:00am 9.4 S 4 5 1020.9 - 0.0 - Mostly clear 10 - - - -
29/05:30am 8.6 SSW 3 4 1020.7 - 0.0 - Partly cloudy 10 - - - -
29/05:00am 8.4 SSW 3 4 1020.5 - 0.0 - - 10 - - - -
29/04:30am 8.5 SW 3 4 1020.2 - 0.0 - - 10 - - - -
29/04:00am 8.8 WSW 5 5 1020.2 - 0.0 - - 10 - - - -
29/03:30am 8.7 CALM 0 0 1020.2 - 0.0 - Partly cloudy 10 - - - -
29/03:00am 8.7 CALM 0 0 1020.4 - 0.0 - - 10 - - - -
29/02:30am 8.6 CALM 0 0 1020.5 - 0.0 - Partly cloudy 10 - - - -
29/02:00am 8.6 SW 3 5 1020.6 - 0.0 - - 10 - - - -
29/01:30am 8.6 SW 1 3 1020.9 - 0.0 - Partly cloudy 10 - - - -
29/01:00am 8.5 CALM 0 0 1021.2 - 0.0 - - 10 - - - -
29/12:30am 8.1 CALM 0 0 1021.5 - 0.0 - - 10 - - - -
29/12:00am 8.0 CALM 0 0 1021.8 - 0.0 - - 10 - - - -
 
Date/Time
EST
Temp
°C
Wind Pressure Rain since
9am
mm
Weather Cloud Vis
km
Sea
Height
m
Swell
Dir  Spd
kts
Gust
kts
hPa Trend Height
m
Period
s
Dir
28/11:30pm 8.4 CALM 0 0 1021.9 - 0.0 - - 10 - - - -
28/11:00pm 8.8 S 2 4 1021.9 - 0.0 - - 10 - - - -
28/10:30pm 9.2 CALM 0 0 1022.1 - 0.0 - - 10 - - - -
28/10:00pm 9.5 S 3 4 1022.3 - 0.0 - - 10 - - - -
28/09:30pm 9.7 S 3 5 1022.5 - 0.0 - - 10 - - - -
28/09:00pm 9.8 CALM 0 0 1022.5 - 0.0 - - 10 - - - -
28/08:30pm 10.1 CALM 0 0 1022.4 - 0.0 - - 10 - - - -
28/08:00pm 10.8 SSW 4 5 1022.3 - 0.0 - - 10 - - - -
28/07:30pm 11.5 SSE 4 5 1022.2 - 0.0 - - 10 - - - -
28/07:00pm 11.7 SSW 2 3 1022.1 - 0.0 - - 10 - - - -
28/06:30pm 12.5 S 4 4 1021.9 - 0.0 - - 10 - - - -
28/06:00pm 14.7 S 3 4 1021.7 - 0.0 - - 10 - - - -
28/05:30pm 16.5 SE 4 5 1021.4 - 0.0 - - 10 - - - -
28/05:00pm 18.0 SE 7 10 1021.0 - 0.0 - - 10 - - - -
28/04:30pm 19.1 SE 7 10 1020.6 - 0.0 - - 10 - - - -
28/04:00pm 19.7 SE 8 13 1020.3 - 0.0 - - 10 - - - -
28/03:30pm 20.0 ESE 10 15 1020.2 - 0.0 - - 10 - - - -
28/03:00pm 20.3 SE 8 12 1020.2 - 0.0 - - 10 - - - -
28/02:30pm 20.3 SE 9 15 1020.3 - 0.0 - - 10 - - - -
28/02:00pm 20.2 SSE 9 13 1020.8 - 0.0 - - 10 - - - -
28/01:30pm 19.8 SE 11 15 1021.0 - 0.0 - - 10 - - - -
28/01:00pm 20.2 ESE 10 16 1021.3 - 0.0 - - 10 - - - -
28/12:30pm 19.5 SSE 12 18 1021.8 - 0.0 - - 10 - - - -
28/12:00pm 19.5 SE 11 18 1022.0 - 0.0 - - 10 - - - -
28/11:30am 19.3 SE 11 17 1022.5 - 0.0 - - 10 - - - -
28/11:00am 19.6 SE 12 17 1022.9 - 0.0 - - 10 - - - -
28/10:30am 19.6 SE 11 17 1023.1 - 0.0 - - 10 - - - -
28/10:00am 19.2 SSE 11 17 1023.3 - 0.0 - - 10 - - - -
28/09:30am 18.6 SSE 10 17 1023.4 - 0.0 - - 10 - - - -
28/09:00am 17.8 SSE 9 14 1023.3 - 0.0 - - 10 - - - -
28/08:30am 16.6 SSE 6 9 1023.1 - 0.0 - - 10 - - - -
28/08:00am 13.6 SSE 4 5 1023.1 - 0.0 - - 10 - - - -
28/07:30am 10.6 SSE 3 4 1022.8 - 0.0 - - 10 - - - -
28/07:00am 8.0 CALM 0 0 1022.5 - 0.0 - - 10 - - - -
28/06:30am 7.4 SSE 3 4 1022.0 - 0.0 - - 10 - - - -
28/06:00am 7.8 SSE 3 5 1021.8 - 0.0 - - 10 - - - -
28/05:30am 8.4 SSE 4 5 1021.5 - 0.0 - - 10 - - - -
28/05:00am 9.0 SSE 4 5 1021.3 - 0.0 - - 10 - - - -
28/04:30am 9.6 SSE 4 5 1021.1 - 0.0 - - 10 - - - -
28/04:00am 9.1 SE 4 4 1021.1 - 0.0 - - 10 - - - -
28/03:30am 9.2 SE 4 4 1021.2 - 0.0 - - 10 - - - -
28/03:00am 9.7 ESE 4 6 1021.3 - 0.0 - - 10 - - - -
28/02:30am 9.2 SSE 5 6 1021.1 - 0.0 - - 10 - - - -
28/02:00am 10.1 SE 5 5 1021.1 - 0.0 - - 10 - - - -
28/01:30am 12.0 S 4 6 1021.1 - 0.0 - - 10 - - - -
28/01:00am 14.0 S 6 8 1021.4 - 0.0 - - 10 - - - -
28/12:30am 13.3 S 5 7 1021.6 - 0.0 - - 10 - - - -
28/12:00am 13.2 S 5 7 1021.4 - 0.0 - Partly cloudy 10 - - - -
 
Date/Time
EST
Temp
°C
Wind Pressure Rain since
9am
mm
Weather Cloud Vis
km
Sea
Height
m
Swell
Dir  Spd
kts
Gust
kts
hPa Trend Height
m
Period
s
Dir
27/11:30pm 11.1 WSW 1 4 1021.2 - 0.0 - - 10 - - - -
27/11:00pm 10.9 CALM 0 0 1021.3 - 0.0 - - 10 - - - -
27/10:30pm 11.2 CALM 0 0 1021.3 - 0.0 - - 10 - - - -
27/10:00pm 11.7 CALM 0 0 1021.1 - 0.0 - - 10 - - - -
27/09:30pm 12.2 CALM 0 0 1020.9 - 0.0 - - 10 - - - -
27/09:00pm 12.2 CALM 0 0 1020.8 - 0.0 - - 10 - - - -
27/08:30pm 13.5 CALM 0 0 1020.5 - 0.0 - - 10 - - - -
27/08:00pm 15.6 CALM 0 2 1020.2 - 0.0 - Partly cloudy 10 - - - -
27/07:30pm 16.5 S 1 4 1019.8 - 0.0 - Partly cloudy 10 - - - -
27/07:00pm 19.1 S 4 5 1019.4 - 0.0 - - 10 - - - -
27/06:30pm 20.4 S 5 7 1018.9 - 0.0 - - 10 - - - -
27/06:00pm 21.2 S 6 9 1018.6 - 0.0 - Cloudy 10 - - - -
27/05:30pm 21.9 S 6 9 1018.4 - 0.0 - - 10 - - - -
27/05:00pm 22.6 SSW 6 8 1018.0 - 0.0 - - 10 - - - -
27/04:30pm 24.5 SSW 7 11 1017.6 - 0.0 - - 10 - - - -
27/04:00pm 24.7 S 7 10 1017.0 - 0.0 - - 10 - - - -
27/03:30pm 25.0 S 8 13 1016.7 - 0.0 - - 10 - - - -
27/03:00pm 25.0 SSW 8 12 1016.7 - 0.0 - - 10 - - - -
27/02:30pm 25.0 S 9 13 1016.8 - 0.0 - - 10 - - - -
27/02:00pm 25.0 SSW 8 11 1016.9 - 0.0 - - 10 - - - -
27/01:30pm 25.4 S 8 12 1017.1 - 0.0 - - 10 - - - -
27/01:00pm 24.8 S 9 13 1017.3 - 0.0 - - 10 - - - -
27/12:30pm 24.9 SSE 8 13 1017.6 - 0.0 - - 10 - - - -
27/12:00pm 23.9 SSW 7 11 1018.1 - 0.0 - Mostly clear 10 - - - -
27/11:30am 23.7 SSE 7 10 1018.5 - 0.0 - - 10 - - - -
27/11:00am 22.8 SE 6 9 1018.9 - 0.0 - - 10 - - - -
27/10:30am 22.3 SSE 5 8 1019.5 - 0.0 - - 10 - - - -
27/10:00am 21.0 SSE 7 9 1019.8 - 0.0 - - 10 - - - -
27/09:30am 20.0 S 4 6 1020.1 - 0.0 - - 10 - - - -
27/09:00am 18.5 SSW 4 7 1020.3 - 0.0 - - 10 - - - -
27/08:30am 17.2 SW 3 4 1020.0 - 0.0 - - 10 - - - -
27/08:00am 15.4 CALM 0 0 1019.5 - 0.0 - - 10 - - - -
27/07:30am 13.2 CALM 0 0 1019.2 - 0.0 - - 10 - - - -
27/07:00am 11.6 CALM 0 0 1018.9 - 0.0 - - 10 - - - -
27/06:30am 10.0 CALM 0 0 1018.5 - 0.0 - - 10 - - - -
27/06:00am 10.5 CALM 0 0 1018.5 - 0.0 - - 10 - - - -
27/05:30am 10.6 CALM 0 0 1018.4 - 0.0 - - 10 - - - -
27/05:00am 10.8 CALM 0 0 1018.4 - 0.0 - - 10 - - - -
27/04:30am 10.9 CALM 0 0 1018.6 - 0.0 - - 10 - - - -
27/04:00am 11.0 CALM 0 0 1018.4 - 0.0 - - 10 - - - -
27/03:30am 11.0 CALM 0 0 1018.2 - 0.0 - - 10 - - - -
27/03:00am 11.1 CALM 0 0 1018.0 - 0.0 - - 10 - - - -
27/02:30am 11.2 CALM 0 0 1018.3 - 0.0 - - 10 - - - -
27/02:00am 11.4 CALM 0 0 1018.5 - 0.0 - - 10 - - - -
27/01:30am 11.7 CALM 0 0 1018.8 - 0.0 - - 10 - - - -
27/01:00am 11.7 CALM 0 0 1018.8 - 0.0 - - 10 - - - -
27/12:30am 11.9 CALM 0 0 1018.9 - 0.0 - - 10 - - - -
27/12:00am 12.1 CALM 0 0 1018.7 - 0.0 - - 10 - - - -

Other Formats:

Comma delimited format used in spreadsheet applications
http://www.bom.gov.au/fwo/IDQ60701/IDQ60701.94370.axf

JavaScript Object Notation format (JSON) in row-major order
http://www.bom.gov.au/fwo/IDQ60701/IDQ60701.94370.json